Roald Amundsen — DARG — position and weather

sailwx.info

Track history (hours):
 
Tides and Currents Weather Stations Pressure Air Temp Water Temp Dewpoint Dewpoint Depression Visibility Wind Speed Wind Dir Waves Ship Positions

Roald Amundsen (Germany)

Built as a deep sea lugger in 1952. Converted and rigged as a traditional brig in 1992.

Ship's website: http://www.sailtraining.de/

Last reported at 2018-Jan-21 00:00 UTC. Time now 2018-Jan-21 00:31 UTC.
Position N 09°22' W 079°57'.

Length 50 m; beam 7.4 m; draft 4.5 m.

Type: Sailing vessel. MMSI: 211215170.

Date/timePositionNaut miles runAvg speedWind from/ knotsBaromVisibWave heightAir tempDewpointWater temp
2018-Jan-21 00:00N 09°22' W 079°57'0 0.0
2018-Jan-20 23:30N 09°22' W 079°57'0 0.0
2018-Jan-20 23:00N 09°22' W 079°57'0 0.0
2018-Jan-20 22:30N 09°22' W 079°57'0 0.0
2018-Jan-20 22:00N 09°22' W 079°57'0 0.0
2018-Jan-20 21:30N 09°22' W 079°57'0 0.0
2018-Jan-20 21:00N 09°22' W 079°57'0 0.0
2018-Jan-20 20:30N 09°22' W 079°57'0 0.0
2018-Jan-20 20:00N 09°22' W 079°57'0 0.0
2018-Jan-20 19:30N 09°22' W 079°57'0 0.0
2018-Jan-20 19:00N 09°22' W 079°57'1 1.1
2018-Jan-20 18:30N 09°22' W 079°57'1 2.8
2018-Jan-20 18:00N 09°23' W 079°55'3 6.9
2018-Jan-20 17:30N 09°26' W 079°54'4 7.0
2018-Jan-20 17:00N 09°28' W 079°51'2 4.2
2018-Jan-20 16:30N 09°30' W 079°49'1 2.7
2018-Jan-20 16:00N 09°30' W 079°48'1 2.6
2018-Jan-20 15:27N 09°29' W 079°47'1 2.2
2018-Jan-20 14:58N 09°28' W 079°46'2 3.9
2018-Jan-20 14:30N 09°29' W 079°48'2 3.3
2018-Jan-20 14:00N 09°30' W 079°49'1 2.9
2018-Jan-20 13:30N 09°31' W 079°50'1 1.1
2018-Jan-20 13:00N 09°31' W 079°51'1 2.1
2018-Jan-20 12:30N 09°30' W 079°50'1 1.9
2018-Jan-20 12:00N 09°30' W 079°50'1 2.1
2018-Jan-20 11:30N 09°29' W 079°49'1 2.0
2018-Jan-20 10:59N 09°29' W 079°48'  
2018-Jan-11 21:10N 09°36' W 079°44'3 3.2
2018-Jan-11 20:16N 09°34' W 079°46'1 3.6
2018-Jan-11 19:58N 09°33' W 079°46'2 3.2
2018-Jan-11 19:28N 09°32' W 079°47'1 2.2
2018-Jan-11 18:59N 09°31' W 079°48'1 2.6
2018-Jan-11 18:30N 09°30' W 079°49'3 6.7
2018-Jan-11 18:01N 09°27' W 079°51'4 7.2
2018-Jan-11 17:30N 09°25' W 079°54'3 6.6
2018-Jan-11 17:00N 09°23' W 079°56'1 1.8
2018-Jan-11 16:30N 09°22' W 079°57'0 0.0
2018-Jan-11 15:57N 09°22' W 079°57'0 0.0
2018-Jan-11 15:30N 09°22' W 079°57'0 0.0
2018-Jan-11 15:00N 09°22' W 079°57'0 0.0
2018-Jan-11 14:30N 09°22' W 079°57'0 0.0
2018-Jan-11 13:57N 09°22' W 079°57'0 0.0
2018-Jan-11 13:30N 09°22' W 079°57'0 0.0
2018-Jan-11 13:00N 09°22' W 079°57'0 0.0
2018-Jan-11 12:30N 09°22' W 079°57'0 0.0
2018-Jan-11 12:00N 09°22' W 079°57'0 0.0
2018-Jan-11 11:30N 09°22' W 079°57'0 0.0
2018-Jan-11 11:00N 09°22' W 079°57'0 0.0
2018-Jan-11 10:30N 09°22' W 079°57'0 0.0
2018-Jan-11 10:00N 09°22' W 079°57'0 0.0
2018-Jan-11 09:30N 09°22' W 079°57'0 0.0
2018-Jan-11 09:00N 09°22' W 079°57'0 0.0
2018-Jan-11 08:30N 09°22' W 079°57'0 0.0
2018-Jan-11 08:00N 09°22' W 079°57'0 0.0
2018-Jan-11 07:30N 09°22' W 079°57'0 0.0
2018-Jan-11 07:00N 09°22' W 079°57'0 0.0
2018-Jan-11 06:30N 09°22' W 079°57'0 0.0
2018-Jan-11 06:00N 09°22' W 079°57'0 0.0
2018-Jan-11 05:27N 09°22' W 079°57'0 0.0
2018-Jan-11 05:00N 09°22' W 079°57'0 0.0
2018-Jan-11 04:30N 09°22' W 079°57'0 0.0
2018-Jan-11 04:00N 09°22' W 079°57'0 0.0
2018-Jan-11 03:30N 09°22' W 079°57'0 0.0
2018-Jan-11 03:00N 09°22' W 079°57'0 0.0
2018-Jan-11 02:30N 09°22' W 079°57'0 0.0
2018-Jan-11 02:00N 09°22' W 079°57'0 0.0
2018-Jan-11 01:30N 09°22' W 079°57'0 0.0
2018-Jan-11 01:00N 09°22' W 079°57'0 0.0
2018-Jan-11 00:30N 09°22' W 079°57'  
Track history (hours):
 
Tides and Currents Weather Stations Pressure Air Temp Water Temp Dewpoint Dewpoint Depression Visibility Wind Speed Wind Dir Waves Ship Positions

Roald Amundsen (Germany)

Built as a deep sea lugger in 1952. Converted and rigged as a traditional brig in 1992.

Ship's website: http://www.sailtraining.de/

Last reported at 2018-Jan-21 00:00 UTC. Time now 2018-Jan-21 00:31 UTC.
Position N 09°22' W 079°57'.

Length 50 m; beam 7.4 m; draft 4.5 m.

Type: Sailing vessel. MMSI: 211215170.

Date/timePositionNaut miles runAvg speedWind from/ knotsBaromVisibWave heightAir tempDewpointWater temp
2018-Jan-21 00:00N 09°22' W 079°57'0 0.0
2018-Jan-20 23:30N 09°22' W 079°57'0 0.0
2018-Jan-20 23:00N 09°22' W 079°57'0 0.0
2018-Jan-20 22:30N 09°22' W 079°57'0 0.0
2018-Jan-20 22:00N 09°22' W 079°57'0 0.0
2018-Jan-20 21:30N 09°22' W 079°57'0 0.0
2018-Jan-20 21:00N 09°22' W 079°57'0 0.0
2018-Jan-20 20:30N 09°22' W 079°57'0 0.0
2018-Jan-20 20:00N 09°22' W 079°57'0 0.0
2018-Jan-20 19:30N 09°22' W 079°57'0 0.0
2018-Jan-20 19:00N 09°22' W 079°57'1 1.1
2018-Jan-20 18:30N 09°22' W 079°57'1 2.8
2018-Jan-20 18:00N 09°23' W 079°55'3 6.9
2018-Jan-20 17:30N 09°26' W 079°54'4 7.0
2018-Jan-20 17:00N 09°28' W 079°51'2 4.2
2018-Jan-20 16:30N 09°30' W 079°49'1 2.7
2018-Jan-20 16:00N 09°30' W 079°48'1 2.6
2018-Jan-20 15:27N 09°29' W 079°47'1 2.2
2018-Jan-20 14:58N 09°28' W 079°46'2 3.9
2018-Jan-20 14:30N 09°29' W 079°48'2 3.3
2018-Jan-20 14:00N 09°30' W 079°49'1 2.9
2018-Jan-20 13:30N 09°31' W 079°50'1 1.1
2018-Jan-20 13:00N 09°31' W 079°51'1 2.1
2018-Jan-20 12:30N 09°30' W 079°50'1 1.9
2018-Jan-20 12:00N 09°30' W 079°50'1 2.1
2018-Jan-20 11:30N 09°29' W 079°49'1 2.0
2018-Jan-20 10:59N 09°29' W 079°48'  
2018-Jan-11 21:10N 09°36' W 079°44'3 3.2
2018-Jan-11 20:16N 09°34' W 079°46'1 3.6
2018-Jan-11 19:58N 09°33' W 079°46'2 3.2
2018-Jan-11 19:28N 09°32' W 079°47'1 2.2
2018-Jan-11 18:59N 09°31' W 079°48'1 2.6
2018-Jan-11 18:30N 09°30' W 079°49'3 6.7
2018-Jan-11 18:01N 09°27' W 079°51'4 7.2
2018-Jan-11 17:30N 09°25' W 079°54'3 6.6
2018-Jan-11 17:00N 09°23' W 079°56'1 1.8
2018-Jan-11 16:30N 09°22' W 079°57'0 0.0
2018-Jan-11 15:57N 09°22' W 079°57'0 0.0
2018-Jan-11 15:30N 09°22' W 079°57'0 0.0
2018-Jan-11 15:00N 09°22' W 079°57'0 0.0
2018-Jan-11 14:30N 09°22' W 079°57'0 0.0
2018-Jan-11 13:57N 09°22' W 079°57'0 0.0
2018-Jan-11 13:30N 09°22' W 079°57'0 0.0
2018-Jan-11 13:00N 09°22' W 079°57'0 0.0
2018-Jan-11 12:30N 09°22' W 079°57'0 0.0
2018-Jan-11 12:00N 09°22' W 079°57'0 0.0
2018-Jan-11 11:30N 09°22' W 079°57'0 0.0
2018-Jan-11 11:00N 09°22' W 079°57'0 0.0
2018-Jan-11 10:30N 09°22' W 079°57'0 0.0
2018-Jan-11 10:00N 09°22' W 079°57'0 0.0
2018-Jan-11 09:30N 09°22' W 079°57'0 0.0
2018-Jan-11 09:00N 09°22' W 079°57'0 0.0
2018-Jan-11 08:30N 09°22' W 079°57'0 0.0
2018-Jan-11 08:00N 09°22' W 079°57'0 0.0
2018-Jan-11 07:30N 09°22' W 079°57'0 0.0
2018-Jan-11 07:00N 09°22' W 079°57'0 0.0
2018-Jan-11 06:30N 09°22' W 079°57'0 0.0
2018-Jan-11 06:00N 09°22' W 079°57'0 0.0
2018-Jan-11 05:27N 09°22' W 079°57'0 0.0
2018-Jan-11 05:00N 09°22' W 079°57'0 0.0
2018-Jan-11 04:30N 09°22' W 079°57'0 0.0
2018-Jan-11 04:00N 09°22' W 079°57'0 0.0
2018-Jan-11 03:30N 09°22' W 079°57'0 0.0
2018-Jan-11 03:00N 09°22' W 079°57'0 0.0
2018-Jan-11 02:30N 09°22' W 079°57'0 0.0
2018-Jan-11 02:00N 09°22' W 079°57'0 0.0
2018-Jan-11 01:30N 09°22' W 079°57'0 0.0
2018-Jan-11 01:00N 09°22' W 079°57'0 0.0
2018-Jan-11 00:30N 09°22' W 079°57'  

Dump ship's entire track history